Deep River, Iowa
Current Conditions -  °F | °C
As of 11:35 AM on Monday 24 Nov 2014 (Local Time) from KGGI Reporting Station
Overcast Overcast  
Wind Chill:   Ceiling: 1800
Heat Index: 25°   Visibility: 10mi
Dew Point: 20°   Wind: 26mph
Humidity: 82%   Direction: 280°W
Pressure: 29.56"   Gusts: 36mph
Location:  41.58°N, 92.37°W
Report Text: KGGI 241735Z AUTO 28023G31KT 10SM OVC018 M04/M07 A2956 RMK AO2 T10401066
Loading
Personal Weather Stations






























Interactive Weather Map New forecast layout! Learn more

10-Day Weather Forecast

Advertisements
Track Severe Weather on mobile